Irini — SYZA — position and weather

sailwx.info

Track history (hours):
 
Tides and Currents Weather Stations Pressure Air Temp Water Temp Dewpoint Dewpoint Depression Visibility Wind Speed Wind Dir Waves Ship Positions

Irini

Last reported at 2014-Sep-27 17:33 UTC. Time now 2014-Oct-01 06:11 UTC.
Position N 37°38' E 024°08'.

Length 137 m; draft 7.5 m.

Type: Tanker. MMSI: 240052000.

Date/timePositionNaut miles runAvg speedWind from/ knotsBaromVisibWave heightAir tempDewpointWater temp
2014-Sep-27 17:33N 37°38' E 024°08'10 9.9
2014-Sep-27 16:33N 37°36' E 023°56'1110.9
2014-Sep-27 15:33N 37°40' E 023°43'1211.8
2014-Sep-27 14:33N 37°51' E 023°37'9 9.3
2014-Sep-27 13:33N 37°59' E 023°33'3 2.9
2014-Sep-27 12:30N 38°02' E 023°31'0 0.0
2014-Sep-27 11:33N 38°02' E 023°31'0 0.0
2014-Sep-27 10:33N 38°02' E 023°31'0 0.0
2014-Sep-27 09:33N 38°02' E 023°31'0 0.0
2014-Sep-27 08:33N 38°02' E 023°31'0 0.0
2014-Sep-27 07:27N 38°02' E 023°31'0 0.0
2014-Sep-27 06:33N 38°02' E 023°31'0 0.0
2014-Sep-27 05:33N 38°02' E 023°31'0 0.0
2014-Sep-27 04:33N 38°02' E 023°31'0 0.0
2014-Sep-27 03:33N 38°02' E 023°31'0 0.0
2014-Sep-27 02:30N 38°02' E 023°31'0 0.0
2014-Sep-27 01:30N 38°02' E 023°31'0 0.0
2014-Sep-27 00:30N 38°02' E 023°31'0 0.0
2014-Sep-26 23:33N 38°02' E 023°31'0 0.0
2014-Sep-26 22:33N 38°02' E 023°31'0 0.0
2014-Sep-26 21:33N 38°02' E 023°31'0 0.0
2014-Sep-26 20:33N 38°02' E 023°31'0 0.0
2014-Sep-26 19:33N 38°02' E 023°31'0 0.0
2014-Sep-26 18:33N 38°02' E 023°31'0 0.0
2014-Sep-26 17:27N 38°02' E 023°31'0 0.0
2014-Sep-26 16:33N 38°02' E 023°31'0 0.0
2014-Sep-26 15:30N 38°02' E 023°31'0 0.0
2014-Sep-26 14:33N 38°02' E 023°31'0 0.0
2014-Sep-26 13:33N 38°02' E 023°31'0 0.0
2014-Sep-26 12:33N 38°02' E 023°31'0 0.0
2014-Sep-26 11:33N 38°02' E 023°31'0 0.0
2014-Sep-26 10:33N 38°02' E 023°31'0 0.0
2014-Sep-26 09:09N 38°02' E 023°31'0 0.0
2014-Sep-26 08:18N 38°02' E 023°31'1 0.9
2014-Sep-26 07:34N 38°02' E 023°31'1 0.5
2014-Sep-26 06:31N 38°01' E 023°32'0 0.0
2014-Sep-26 05:31N 38°01' E 023°32'0 0.0
2014-Sep-26 04:31N 38°01' E 023°32'0 0.0
2014-Sep-26 03:28N 38°01' E 023°32'0 0.0
2014-Sep-26 02:31N 38°01' E 023°32'0 0.1
2014-Sep-26 01:31N 38°01' E 023°32'0 0.0
2014-Sep-26 00:31N 38°01' E 023°32'0 0.0
2014-Sep-25 23:28N 38°01' E 023°32'0 0.0
2014-Sep-25 22:31N 38°01' E 023°32'0 0.1
2014-Sep-25 21:31N 38°01' E 023°32'0 0.0
2014-Sep-25 20:31N 38°01' E 023°32'0 0.0
2014-Sep-25 19:28N 38°01' E 023°32'0 0.0
2014-Sep-25 18:31N 38°01' E 023°32'0 0.0
2014-Sep-25 17:31N 38°01' E 023°32'0 0.0
2014-Sep-25 16:31N 38°01' E 023°32'0 0.0
2014-Sep-25 15:28N 38°01' E 023°32'0 0.0
2014-Sep-25 14:25N 38°01' E 023°32'0 0.0
2014-Sep-25 13:31N 38°01' E 023°32'0 0.0
2014-Sep-25 12:31N 38°01' E 023°32'0 0.1
2014-Sep-25 11:31N 38°01' E 023°32'0 0.0
2014-Sep-25 10:31N 38°01' E 023°32'0 0.1
2014-Sep-25 09:31N 38°01' E 023°32'0 0.1
2014-Sep-25 08:31N 38°01' E 023°32'0 0.1
2014-Sep-25 07:31N 38°01' E 023°32'0 0.0
2014-Sep-25 06:28N 38°01' E 023°32'1 0.8
2014-Sep-25 05:33N 38°01' E 023°33'2 2.4
2014-Sep-25 04:33N 38°01' E 023°36'0 0.0
2014-Sep-25 03:33N 38°01' E 023°36'0 0.0
2014-Sep-25 02:33N 38°01' E 023°36'0 0.0
2014-Sep-25 01:31N 38°01' E 023°36'0 0.0
2014-Sep-25 00:31N 38°01' E 023°36'0 0.0
2014-Sep-24 23:31N 38°01' E 023°36'0 0.0
2014-Sep-24 22:31N 38°01' E 023°36'0 0.0
2014-Sep-24 21:31N 38°01' E 023°36'0 0.0
2014-Sep-24 20:31N 38°01' E 023°36'0 0.0
2014-Sep-24 19:28N 38°01' E 023°36'0 0.0
2014-Sep-24 18:28N 38°01' E 023°36'0 0.0
2014-Sep-24 11:04N 38°01' E 023°36'2 2.9
2014-Sep-24 10:33N 38°01' E 023°34'3 3.0
2014-Sep-24 09:33N 38°02' E 023°30'0 0.2
2014-Sep-24 08:34N 38°02' E 023°31'0 0.0
2014-Sep-24 07:34N 38°02' E 023°31'0 0.0
2014-Sep-24 06:34N 38°02' E 023°31'0 0.0
2014-Sep-24 05:34N 38°02' E 023°31'0 0.0
2014-Sep-24 04:33N 38°02' E 023°31'0 0.0
2014-Sep-24 03:34N 38°02' E 023°31'0 0.0
2014-Sep-24 02:34N 38°02' E 023°31'0 0.0
2014-Sep-24 01:34N 38°02' E 023°31'0 0.0
2014-Sep-24 00:33N 38°02' E 023°31'0 0.0
2014-Sep-23 23:34N 38°02' E 023°31'0 0.0
2014-Sep-23 22:34N 38°02' E 023°31'0 0.0
2014-Sep-23 21:34N 38°02' E 023°31'0 0.0
2014-Sep-23 20:34N 38°02' E 023°31'0 0.0
2014-Sep-23 19:33N 38°02' E 023°31'0 0.0
2014-Sep-23 18:33N 38°02' E 023°31'0 0.0
2014-Sep-23 17:34N 38°02' E 023°31'0 0.0
2014-Sep-23 16:34N 38°02' E 023°31'0 0.0
2014-Sep-23 15:34N 38°02' E 023°31'0 0.0
2014-Sep-23 14:33N 38°02' E 023°31'0 0.0
2014-Sep-23 13:34N 38°02' E 023°31'0 0.0
2014-Sep-23 12:33N 38°02' E 023°31'0 0.0
2014-Sep-23 11:33N 38°02' E 023°31'0 0.0
2014-Sep-23 10:33N 38°02' E 023°31'0 0.0
2014-Sep-23 09:34N 38°02' E 023°31'0 0.0
2014-Sep-23 08:34N 38°02' E 023°31'0 0.0
2014-Sep-23 07:34N 38°02' E 023°31'1 0.7
2014-Sep-23 06:33N 38°01' E 023°31'8 7.8
2014-Sep-23 05:33N 37°55' E 023°36'9 8.8
2014-Sep-23 04:34N 37°47' E 023°42'1111.0
2014-Sep-23 03:32N 37°39' E 023°51'1111.2
2014-Sep-23 02:34N 37°37' E 024°05'1410.9
2014-Sep-23 01:15N 37°45' E 024°19'1810.8
2014-Sep-22 23:33N 37°58' E 024°35'2410.6
2014-Sep-22 21:16N 38°22' E 024°30'  
2014-Sep-20 16:23N 37°53' E 024°31'1311.3
2014-Sep-20 15:16N 37°44' E 024°19'811.1
2014-Sep-20 14:31N 37°39' E 024°11'1110.8
2014-Sep-20 13:29N 37°36' E 023°57'1011.1
2014-Sep-20 12:33N 37°39' E 023°45'1110.9
2014-Sep-20 11:33N 37°48' E 023°38'9 9.1
2014-Sep-20 10:33N 37°57' E 023°35'4 0.2
2014-Sep-19 08:33N 38°01' E 023°35'6 5.8
2014-Sep-19 07:33N 37°55' E 023°36'1 0.9
2014-Sep-19 06:33N 37°54' E 023°36'6 5.5
2014-Sep-19 05:33N 37°50' E 023°39'1010.2
2014-Sep-19 04:34N 37°41' E 023°46'1611.0
2014-Sep-19 03:03N 37°36' E 024°06'  
Track history (hours):
 
Tides and Currents Weather Stations Pressure Air Temp Water Temp Dewpoint Dewpoint Depression Visibility Wind Speed Wind Dir Waves Ship Positions

Irini

Last reported at 2014-Sep-27 17:33 UTC. Time now 2014-Oct-01 06:11 UTC.
Position N 37°38' E 024°08'.

Length 137 m; draft 7.5 m.

Type: Tanker. MMSI: 240052000.

Date/timePositionNaut miles runAvg speedWind from/ knotsBaromVisibWave heightAir tempDewpointWater temp
2014-Sep-27 17:33N 37°38' E 024°08'10 9.9
2014-Sep-27 16:33N 37°36' E 023°56'1110.9
2014-Sep-27 15:33N 37°40' E 023°43'1211.8
2014-Sep-27 14:33N 37°51' E 023°37'9 9.3
2014-Sep-27 13:33N 37°59' E 023°33'3 2.9
2014-Sep-27 12:30N 38°02' E 023°31'0 0.0
2014-Sep-27 11:33N 38°02' E 023°31'0 0.0
2014-Sep-27 10:33N 38°02' E 023°31'0 0.0
2014-Sep-27 09:33N 38°02' E 023°31'0 0.0
2014-Sep-27 08:33N 38°02' E 023°31'0 0.0
2014-Sep-27 07:27N 38°02' E 023°31'0 0.0
2014-Sep-27 06:33N 38°02' E 023°31'0 0.0
2014-Sep-27 05:33N 38°02' E 023°31'0 0.0
2014-Sep-27 04:33N 38°02' E 023°31'0 0.0
2014-Sep-27 03:33N 38°02' E 023°31'0 0.0
2014-Sep-27 02:30N 38°02' E 023°31'0 0.0
2014-Sep-27 01:30N 38°02' E 023°31'0 0.0
2014-Sep-27 00:30N 38°02' E 023°31'0 0.0
2014-Sep-26 23:33N 38°02' E 023°31'0 0.0
2014-Sep-26 22:33N 38°02' E 023°31'0 0.0
2014-Sep-26 21:33N 38°02' E 023°31'0 0.0
2014-Sep-26 20:33N 38°02' E 023°31'0 0.0
2014-Sep-26 19:33N 38°02' E 023°31'0 0.0
2014-Sep-26 18:33N 38°02' E 023°31'0 0.0
2014-Sep-26 17:27N 38°02' E 023°31'0 0.0
2014-Sep-26 16:33N 38°02' E 023°31'0 0.0
2014-Sep-26 15:30N 38°02' E 023°31'0 0.0
2014-Sep-26 14:33N 38°02' E 023°31'0 0.0
2014-Sep-26 13:33N 38°02' E 023°31'0 0.0
2014-Sep-26 12:33N 38°02' E 023°31'0 0.0
2014-Sep-26 11:33N 38°02' E 023°31'0 0.0
2014-Sep-26 10:33N 38°02' E 023°31'0 0.0
2014-Sep-26 09:09N 38°02' E 023°31'0 0.0
2014-Sep-26 08:18N 38°02' E 023°31'1 0.9
2014-Sep-26 07:34N 38°02' E 023°31'1 0.5
2014-Sep-26 06:31N 38°01' E 023°32'0 0.0
2014-Sep-26 05:31N 38°01' E 023°32'0 0.0
2014-Sep-26 04:31N 38°01' E 023°32'0 0.0
2014-Sep-26 03:28N 38°01' E 023°32'0 0.0
2014-Sep-26 02:31N 38°01' E 023°32'0 0.1
2014-Sep-26 01:31N 38°01' E 023°32'0 0.0
2014-Sep-26 00:31N 38°01' E 023°32'0 0.0
2014-Sep-25 23:28N 38°01' E 023°32'0 0.0
2014-Sep-25 22:31N 38°01' E 023°32'0 0.1
2014-Sep-25 21:31N 38°01' E 023°32'0 0.0
2014-Sep-25 20:31N 38°01' E 023°32'0 0.0
2014-Sep-25 19:28N 38°01' E 023°32'0 0.0
2014-Sep-25 18:31N 38°01' E 023°32'0 0.0
2014-Sep-25 17:31N 38°01' E 023°32'0 0.0
2014-Sep-25 16:31N 38°01' E 023°32'0 0.0
2014-Sep-25 15:28N 38°01' E 023°32'0 0.0
2014-Sep-25 14:25N 38°01' E 023°32'0 0.0
2014-Sep-25 13:31N 38°01' E 023°32'0 0.0
2014-Sep-25 12:31N 38°01' E 023°32'0 0.1
2014-Sep-25 11:31N 38°01' E 023°32'0 0.0
2014-Sep-25 10:31N 38°01' E 023°32'0 0.1
2014-Sep-25 09:31N 38°01' E 023°32'0 0.1
2014-Sep-25 08:31N 38°01' E 023°32'0 0.1
2014-Sep-25 07:31N 38°01' E 023°32'0 0.0
2014-Sep-25 06:28N 38°01' E 023°32'1 0.8
2014-Sep-25 05:33N 38°01' E 023°33'2 2.4
2014-Sep-25 04:33N 38°01' E 023°36'0 0.0
2014-Sep-25 03:33N 38°01' E 023°36'0 0.0
2014-Sep-25 02:33N 38°01' E 023°36'0 0.0
2014-Sep-25 01:31N 38°01' E 023°36'0 0.0
2014-Sep-25 00:31N 38°01' E 023°36'0 0.0
2014-Sep-24 23:31N 38°01' E 023°36'0 0.0
2014-Sep-24 22:31N 38°01' E 023°36'0 0.0
2014-Sep-24 21:31N 38°01' E 023°36'0 0.0
2014-Sep-24 20:31N 38°01' E 023°36'0 0.0
2014-Sep-24 19:28N 38°01' E 023°36'0 0.0
2014-Sep-24 18:28N 38°01' E 023°36'0 0.0
2014-Sep-24 11:04N 38°01' E 023°36'2 2.9
2014-Sep-24 10:33N 38°01' E 023°34'3 3.0
2014-Sep-24 09:33N 38°02' E 023°30'0 0.2
2014-Sep-24 08:34N 38°02' E 023°31'0 0.0
2014-Sep-24 07:34N 38°02' E 023°31'0 0.0
2014-Sep-24 06:34N 38°02' E 023°31'0 0.0
2014-Sep-24 05:34N 38°02' E 023°31'0 0.0
2014-Sep-24 04:33N 38°02' E 023°31'0 0.0
2014-Sep-24 03:34N 38°02' E 023°31'0 0.0
2014-Sep-24 02:34N 38°02' E 023°31'0 0.0
2014-Sep-24 01:34N 38°02' E 023°31'0 0.0
2014-Sep-24 00:33N 38°02' E 023°31'0 0.0
2014-Sep-23 23:34N 38°02' E 023°31'0 0.0
2014-Sep-23 22:34N 38°02' E 023°31'0 0.0
2014-Sep-23 21:34N 38°02' E 023°31'0 0.0
2014-Sep-23 20:34N 38°02' E 023°31'0 0.0
2014-Sep-23 19:33N 38°02' E 023°31'0 0.0
2014-Sep-23 18:33N 38°02' E 023°31'0 0.0
2014-Sep-23 17:34N 38°02' E 023°31'0 0.0
2014-Sep-23 16:34N 38°02' E 023°31'0 0.0
2014-Sep-23 15:34N 38°02' E 023°31'0 0.0
2014-Sep-23 14:33N 38°02' E 023°31'0 0.0
2014-Sep-23 13:34N 38°02' E 023°31'0 0.0
2014-Sep-23 12:33N 38°02' E 023°31'0 0.0
2014-Sep-23 11:33N 38°02' E 023°31'0 0.0
2014-Sep-23 10:33N 38°02' E 023°31'0 0.0
2014-Sep-23 09:34N 38°02' E 023°31'0 0.0
2014-Sep-23 08:34N 38°02' E 023°31'0 0.0
2014-Sep-23 07:34N 38°02' E 023°31'1 0.7
2014-Sep-23 06:33N 38°01' E 023°31'8 7.8
2014-Sep-23 05:33N 37°55' E 023°36'9 8.8
2014-Sep-23 04:34N 37°47' E 023°42'1111.0
2014-Sep-23 03:32N 37°39' E 023°51'1111.2
2014-Sep-23 02:34N 37°37' E 024°05'1410.9
2014-Sep-23 01:15N 37°45' E 024°19'1810.8
2014-Sep-22 23:33N 37°58' E 024°35'2410.6
2014-Sep-22 21:16N 38°22' E 024°30'  
2014-Sep-20 16:23N 37°53' E 024°31'1311.3
2014-Sep-20 15:16N 37°44' E 024°19'811.1
2014-Sep-20 14:31N 37°39' E 024°11'1110.8
2014-Sep-20 13:29N 37°36' E 023°57'1011.1
2014-Sep-20 12:33N 37°39' E 023°45'1110.9
2014-Sep-20 11:33N 37°48' E 023°38'9 9.1
2014-Sep-20 10:33N 37°57' E 023°35'4 0.2
2014-Sep-19 08:33N 38°01' E 023°35'6 5.8
2014-Sep-19 07:33N 37°55' E 023°36'1 0.9
2014-Sep-19 06:33N 37°54' E 023°36'6 5.5
2014-Sep-19 05:33N 37°50' E 023°39'1010.2
2014-Sep-19 04:34N 37°41' E 023°46'1611.0
2014-Sep-19 03:03N 37°36' E 024°06'  

Dump ship's entire track history